createdAt,value
2018-03-25T00:00:45.486Z,28.80
2018-03-25T00:01:45.445Z,29.40
2018-03-25T00:02:45.421Z,28.20
2018-03-25T00:03:45.335Z,27.90
2018-03-25T00:04:45.288Z,29.30
2018-03-25T00:05:45.232Z,29.70
2018-03-25T00:06:45.176Z,29.00
2018-03-25T00:07:45.174Z,29.70
2018-03-25T00:08:45.085Z,29.90
2018-03-25T00:09:45.027Z,29.60
2018-03-25T00:10:44.976Z,28.90
2018-03-25T00:11:44.920Z,29.70
2018-03-25T00:12:44.894Z,29.00
2018-03-25T00:13:44.821Z,28.70
2018-03-25T00:14:44.768Z,29.00
2018-03-25T00:15:44.717Z,28.90
2018-03-25T00:16:44.665Z,29.50
2018-03-25T00:17:44.638Z,30.10
2018-03-25T00:18:44.565Z,29.10
2018-03-25T00:19:44.514Z,29.50
2018-03-25T00:20:44.468Z,29.80
2018-03-25T00:21:52.181Z,30.40
2018-03-25T00:22:44.387Z,29.60
2018-03-25T00:23:44.305Z,29.80
2018-03-25T00:24:44.257Z,29.40
2018-03-25T00:25:44.204Z,30.40
2018-03-25T00:26:44.156Z,29.70
2018-03-25T00:27:44.178Z,30.30
2018-03-25T00:28:44.058Z,28.80
2018-03-25T00:29:44.004Z,30.50
2018-03-25T00:30:43.952Z,29.80
2018-03-25T00:31:43.898Z,30.30
2018-03-25T00:32:43.872Z,30.70
2018-03-25T00:33:43.799Z,30.50
2018-03-25T00:34:43.748Z,30.30
2018-03-25T00:35:43.697Z,30.80
2018-03-25T00:36:43.646Z,30.80
2018-03-25T00:37:43.619Z,31.00
2018-03-25T00:38:43.548Z,31.30
2018-03-25T00:39:43.494Z,30.10
2018-03-25T00:40:43.443Z,30.40
2018-03-25T00:41:43.394Z,30.20
2018-03-25T00:42:43.366Z,30.40
2018-03-25T00:43:43.292Z,31.30
2018-03-25T00:44:43.235Z,30.20
2018-03-25T00:45:43.186Z,31.00
2018-03-25T00:46:43.134Z,31.40
2018-03-25T00:47:43.108Z,30.80
2018-03-25T00:48:43.060Z,31.30
2018-03-25T00:49:42.984Z,30.20
2018-03-25T00:50:42.933Z,30.30
2018-03-25T00:51:42.877Z,30.50
2018-03-25T00:52:42.829Z,30.10
2018-03-25T00:53:42.800Z,30.40
2018-03-25T00:54:42.726Z,31.80
2018-03-25T00:55:42.675Z,30.80
2018-03-25T00:56:42.622Z,30.20
2018-03-25T00:57:42.572Z,29.90
2018-03-25T00:58:42.545Z,29.40
2018-03-25T00:59:42.480Z,30.40
2018-03-25T01:00:42.422Z,30.40
2018-03-25T01:01:42.371Z,30.30
2018-03-25T01:02:42.325Z,30.40
2018-03-25T01:03:42.286Z,31.50
2018-03-25T01:04:42.228Z,30.10
2018-03-25T01:05:42.165Z,31.60
2018-03-25T01:06:42.116Z,31.80
2018-03-25T01:07:42.125Z,32.00
2018-03-25T01:08:42.032Z,32.10
2018-03-25T01:09:41.959Z,31.70
2018-03-25T01:10:41.914Z,31.30
2018-03-25T01:11:41.859Z,31.80
2018-03-25T01:12:41.807Z,32.50
2018-03-25T01:13:41.778Z,30.80
2018-03-25T01:14:41.707Z,31.90
2018-03-25T01:15:41.653Z,31.70
2018-03-25T01:16:41.601Z,32.50
2018-03-25T01:17:41.553Z,31.40
2018-03-25T01:18:41.525Z,31.70
2018-03-25T01:19:41.452Z,31.40
2018-03-25T01:20:41.395Z,31.60
2018-03-25T01:21:41.351Z,31.50
2018-03-25T01:22:41.296Z,31.20
2018-03-25T01:23:41.266Z,32.60
2018-03-25T01:24:41.192Z,32.70
2018-03-25T01:25:41.143Z,32.00
2018-03-25T01:26:41.091Z,32.40
2018-03-25T01:27:41.038Z,32.30
2018-03-25T01:28:41.013Z,31.90
2018-03-25T01:29:40.935Z,32.00
2018-03-25T01:30:40.881Z,31.50
2018-03-25T01:31:40.851Z,32.00
2018-03-25T01:32:40.784Z,31.80
2018-03-25T01:33:40.756Z,33.10
2018-03-25T01:34:40.678Z,33.50
2018-03-25T01:35:40.635Z,31.70
2018-03-25T01:36:40.577Z,31.10
2018-03-25T01:37:40.531Z,32.30
2018-03-25T01:38:40.498Z,31.60
2018-03-25T01:39:40.421Z,32.70
2018-03-25T01:40:40.370Z,33.00
2018-03-25T01:41:40.334Z,32.60
2018-03-25T01:42:40.270Z,33.20
2018-03-25T01:43:40.247Z,33.20
2018-03-25T01:44:40.167Z,32.50
2018-03-25T01:45:40.115Z,33.10
2018-03-25T01:46:40.064Z,33.30
2018-03-25T01:47:40.012Z,31.70
2018-03-25T01:48:39.981Z,32.60
2018-03-25T01:49:39.910Z,33.00
2018-03-25T01:50:39.872Z,32.40
2018-03-25T01:51:39.802Z,33.60
2018-03-25T01:52:39.754Z,33.50
2018-03-25T01:53:39.730Z,32.70
2018-03-25T01:54:39.653Z,33.10
2018-03-25T01:55:39.599Z,33.20
2018-03-25T01:56:39.549Z,33.50
2018-03-25T01:57:39.496Z,32.70
2018-03-25T01:58:39.470Z,33.70
2018-03-25T01:59:39.398Z,32.40
2018-03-25T02:00:39.371Z,33.70
2018-03-25T02:01:39.295Z,33.80
2018-03-25T02:02:39.239Z,33.70
2018-03-25T02:03:39.213Z,33.80
2018-03-25T02:04:39.140Z,33.10
2018-03-25T02:05:39.088Z,33.40
2018-03-25T02:06:39.034Z,34.10
2018-03-25T02:07:38.988Z,33.40
2018-03-25T02:08:38.958Z,34.20
2018-03-25T02:09:38.878Z,34.00
2018-03-25T02:10:38.831Z,35.50
2018-03-25T02:11:38.779Z,33.30
2018-03-25T02:12:38.728Z,34.70
2018-03-25T02:13:38.696Z,34.50
2018-03-25T02:14:38.623Z,34.50
2018-03-25T02:15:38.573Z,34.60
2018-03-25T02:16:38.526Z,34.40
2018-03-25T02:17:38.470Z,35.30
2018-03-25T02:18:38.438Z,33.80
2018-03-25T02:19:38.361Z,34.00
2018-03-25T02:20:38.320Z,34.40
2018-03-25T02:21:38.267Z,34.20
2018-03-25T02:22:38.208Z,36.00
2018-03-25T02:23:38.180Z,35.50
2018-03-25T02:24:38.106Z,34.10
2018-03-25T02:25:38.053Z,34.70
2018-03-25T02:26:38.005Z,34.90
2018-03-25T02:27:37.950Z,34.40
2018-03-25T02:28:37.926Z,34.50
2018-03-25T02:29:37.849Z,33.80
2018-03-25T02:30:37.807Z,34.20
2018-03-25T02:31:37.753Z,35.00
2018-03-25T02:32:37.692Z,34.50
2018-03-25T02:33:37.661Z,34.30
2018-03-25T02:34:37.591Z,34.40
2018-03-25T02:35:37.538Z,34.50
2018-03-25T02:36:37.493Z,34.10
2018-03-25T02:37:37.439Z,33.60
2018-03-25T02:38:37.416Z,33.50
2018-03-25T02:39:37.329Z,34.50
2018-03-25T02:40:37.280Z,34.40
2018-03-25T02:41:37.231Z,34.50
2018-03-25T02:42:37.175Z,35.30
2018-03-25T02:43:37.146Z,34.80
2018-03-25T02:44:37.073Z,35.40
2018-03-25T02:45:37.047Z,34.40
2018-03-25T02:46:36.973Z,35.00
2018-03-25T02:47:36.932Z,36.30
2018-03-25T02:48:36.889Z,35.10
2018-03-25T02:49:36.816Z,34.70
2018-03-25T02:50:36.763Z,35.60
2018-03-25T02:51:36.714Z,36.30
2018-03-25T02:52:36.660Z,35.40
2018-03-25T02:53:36.629Z,35.10
2018-03-25T02:54:36.555Z,34.60
2018-03-25T02:55:36.503Z,34.60
2018-03-25T02:56:36.452Z,35.30
2018-03-25T02:57:36.398Z,35.00
2018-03-25T02:58:36.371Z,35.20
2018-03-25T02:59:36.294Z,35.60
2018-03-25T03:00:36.245Z,35.30
2018-03-25T03:01:36.192Z,36.80
2018-03-25T03:02:36.196Z,35.90
2018-03-25T03:03:36.117Z,35.10
2018-03-25T03:04:36.035Z,34.60
2018-03-25T03:05:35.991Z,36.50
2018-03-25T03:06:35.932Z,34.80
2018-03-25T03:07:35.884Z,36.10
2018-03-25T03:08:35.851Z,35.80
2018-03-25T03:09:35.773Z,36.60
2018-03-25T03:10:35.725Z,34.30
2018-03-25T03:11:35.671Z,34.20
2018-03-25T03:12:35.624Z,34.80
2018-03-25T03:13:35.594Z,36.10
2018-03-25T03:14:35.515Z,36.30
2018-03-25T03:15:35.461Z,35.30
2018-03-25T03:16:35.411Z,36.00
2018-03-25T03:17:35.361Z,36.90
2018-03-25T03:18:35.354Z,34.30
2018-03-25T03:19:35.260Z,35.40
2018-03-25T03:20:35.202Z,35.20
2018-03-25T03:21:35.158Z,36.30
2018-03-25T03:22:35.100Z,37.00
2018-03-25T03:23:35.073Z,36.30
2018-03-25T03:24:34.998Z,37.60
2018-03-25T03:25:34.942Z,36.50
2018-03-25T03:26:34.893Z,37.30
2018-03-25T03:27:34.839Z,36.80
2018-03-25T03:28:34.811Z,36.70
2018-03-25T03:29:34.736Z,37.40
2018-03-25T03:30:34.684Z,37.70
2018-03-25T03:31:34.632Z,37.00
2018-03-25T03:32:34.579Z,36.70
2018-03-25T03:33:34.549Z,35.80
2018-03-25T03:34:34.474Z,39.00
2018-03-25T03:35:34.419Z,37.70
2018-03-25T03:36:34.371Z,36.30
2018-03-25T03:37:34.318Z,35.70
2018-03-25T03:38:34.266Z,36.10
2018-03-25T03:39:34.236Z,37.20
2018-03-25T03:40:34.164Z,36.60
2018-03-25T03:41:34.109Z,36.80
2018-03-25T03:42:34.060Z,35.90
2018-03-25T03:43:34.003Z,35.90
2018-03-25T03:44:33.978Z,34.60
2018-03-25T03:45:33.899Z,35.10
2018-03-25T03:46:33.854Z,35.10
2018-03-25T03:47:33.799Z,36.30
2018-03-25T03:48:33.742Z,37.20
2018-03-25T03:49:33.715Z,37.90
2018-03-25T03:50:33.642Z,36.40
2018-03-25T03:51:33.588Z,37.30
2018-03-25T03:52:33.538Z,37.40
2018-03-25T03:53:33.536Z,38.00
2018-03-25T03:54:33.456Z,37.40
2018-03-25T03:55:33.381Z,37.50
2018-03-25T03:56:33.324Z,38.10
2018-03-25T03:57:33.276Z,37.30
2018-03-25T03:58:33.223Z,38.20
2018-03-25T03:59:33.196Z,38.00
2018-03-25T04:00:33.119Z,38.20
2018-03-25T04:01:33.064Z,39.10
2018-03-25T04:02:33.015Z,39.60
2018-03-25T04:03:32.960Z,39.10
2018-03-25T04:04:32.932Z,37.90
2018-03-25T04:05:32.859Z,37.60
2018-03-25T04:06:32.807Z,37.30
2018-03-25T04:07:32.749Z,36.70
2018-03-25T04:08:32.699Z,37.50
2018-03-25T04:09:32.674Z,37.20
2018-03-25T04:10:32.601Z,37.90
2018-03-25T04:11:32.544Z,37.30
2018-03-25T04:12:32.490Z,37.60
2018-03-25T04:13:32.435Z,36.70
2018-03-25T04:14:32.407Z,36.70
2018-03-25T04:15:32.331Z,36.00
2018-03-25T04:16:32.278Z,36.50
2018-03-25T04:17:32.236Z,35.40
2018-03-25T04:18:32.178Z,34.60
2018-03-25T04:19:32.146Z,34.90
2018-03-25T04:20:32.071Z,35.20
2018-03-25T04:21:32.020Z,36.00
2018-03-25T04:22:31.964Z,35.80
2018-03-25T04:23:31.912Z,35.40
2018-03-25T04:24:31.883Z,34.90
2018-03-25T04:25:31.812Z,35.80
2018-03-25T04:26:31.756Z,35.70
2018-03-25T04:27:31.707Z,35.60
2018-03-25T04:28:31.648Z,36.20
2018-03-25T04:29:31.622Z,36.10
2018-03-25T04:30:31.545Z,34.90
2018-03-25T04:31:31.492Z,35.60
2018-03-25T04:32:31.439Z,35.30
2018-03-25T04:33:31.390Z,35.20
2018-03-25T04:34:31.360Z,35.20
2018-03-25T04:35:31.285Z,35.20
2018-03-25T04:36:31.230Z,34.70
2018-03-25T04:37:31.180Z,35.00
2018-03-25T04:38:31.130Z,33.60
2018-03-25T04:39:31.104Z,34.80
2018-03-25T04:40:31.021Z,35.10
2018-03-25T04:41:30.982Z,35.10
2018-03-25T04:42:30.917Z,34.70
2018-03-25T04:43:30.866Z,35.60
2018-03-25T04:44:30.835Z,36.30
2018-03-25T04:45:30.756Z,35.80
2018-03-25T04:46:30.718Z,36.70
2018-03-25T04:47:30.651Z,36.20
2018-03-25T04:48:30.603Z,36.70
2018-03-25T04:49:30.573Z,36.40
2018-03-25T04:50:30.497Z,36.10
2018-03-25T04:51:30.442Z,35.30
2018-03-25T04:52:30.398Z,36.10
2018-03-25T04:53:30.343Z,37.10
2018-03-25T04:54:30.306Z,37.30
2018-03-25T04:55:30.238Z,36.20
2018-03-25T04:56:30.178Z,35.10
2018-03-25T04:57:30.136Z,37.10
2018-03-25T04:58:30.097Z,36.10
2018-03-25T04:59:30.044Z,36.10
2018-03-25T05:00:29.969Z,38.60
2018-03-25T05:01:29.917Z,36.70
2018-03-25T05:02:29.895Z,37.20
2018-03-25T05:03:29.813Z,36.80
2018-03-25T05:04:29.785Z,36.30
2018-03-25T05:05:29.705Z,36.30
2018-03-25T05:06:29.654Z,36.20
2018-03-25T05:07:29.602Z,35.70
2018-03-25T05:08:29.553Z,37.30
2018-03-25T05:09:29.525Z,36.50
2018-03-25T05:10:29.444Z,37.80
2018-03-25T05:11:29.393Z,37.70
2018-03-25T05:12:29.338Z,36.60
2018-03-25T05:13:29.286Z,36.60
2018-03-25T05:14:29.262Z,37.70
2018-03-25T05:15:29.180Z,37.30
2018-03-25T05:16:29.133Z,37.80
2018-03-25T05:17:29.094Z,38.60
2018-03-25T05:18:29.042Z,37.90
2018-03-25T05:19:28.993Z,39.10
2018-03-25T05:20:28.919Z,38.70
2018-03-25T05:21:28.870Z,38.50
2018-03-25T05:22:28.814Z,38.90
2018-03-25T05:23:28.760Z,38.50
2018-03-25T05:24:28.731Z,37.30
2018-03-25T05:25:28.655Z,39.00
2018-03-25T05:26:28.601Z,39.20
2018-03-25T05:27:28.549Z,39.60
2018-03-25T05:28:28.495Z,38.70
2018-03-25T05:29:28.472Z,37.90
2018-03-25T05:30:28.393Z,37.80
2018-03-25T05:31:28.341Z,38.40
2018-03-25T05:32:28.286Z,38.50
2018-03-25T05:33:28.236Z,38.90
2018-03-25T05:34:28.204Z,37.90
2018-03-25T05:35:28.142Z,37.30
2018-03-25T05:36:28.077Z,35.80
2018-03-25T05:37:28.031Z,38.40
2018-03-25T05:38:27.973Z,37.70
2018-03-25T05:39:27.942Z,39.00
2018-03-25T05:40:27.864Z,38.80
2018-03-25T05:41:27.812Z,39.40
2018-03-25T05:42:27.759Z,39.10
2018-03-25T05:43:27.707Z,39.40
2018-03-25T05:44:27.692Z,39.70
2018-03-25T05:45:27.602Z,37.50
2018-03-25T05:46:27.548Z,37.50
2018-03-25T05:47:27.506Z,39.40
2018-03-25T05:48:27.450Z,38.50
2018-03-25T05:49:27.413Z,38.40
2018-03-25T05:50:27.342Z,38.20
2018-03-25T05:51:27.289Z,38.80
2018-03-25T05:52:27.236Z,38.40
2018-03-25T05:53:27.239Z,38.80
2018-03-25T05:54:27.154Z,38.10
2018-03-25T05:55:27.078Z,38.00
2018-03-25T05:56:27.025Z,38.40
2018-03-25T05:57:26.978Z,37.70
2018-03-25T05:58:26.924Z,38.30
2018-03-25T05:59:26.890Z,39.10
2018-03-25T06:00:26.816Z,38.60
2018-03-25T06:01:26.763Z,38.80
2018-03-25T06:02:26.714Z,38.50
2018-03-25T06:03:26.659Z,39.20
2018-03-25T06:04:26.630Z,38.70
2018-03-25T06:05:26.557Z,38.00
2018-03-25T06:06:26.504Z,37.70
2018-03-25T06:07:26.456Z,38.10
2018-03-25T06:08:26.399Z,38.10
2018-03-25T06:09:26.368Z,38.40
2018-03-25T06:10:26.296Z,37.70
2018-03-25T06:11:26.243Z,37.00
2018-03-25T06:12:26.192Z,39.00
2018-03-25T06:13:26.145Z,38.20
2018-03-25T06:14:26.110Z,38.60
2018-03-25T06:15:26.031Z,39.00
2018-03-25T06:16:25.987Z,39.10
2018-03-25T06:17:25.929Z,38.70
2018-03-25T06:18:25.876Z,39.70
2018-03-25T06:19:25.851Z,40.10
2018-03-25T06:20:25.775Z,40.70
2018-03-25T06:21:25.722Z,40.00
2018-03-25T06:22:25.686Z,40.00
2018-03-25T06:23:25.621Z,38.60
2018-03-25T06:24:25.586Z,40.10
2018-03-25T06:25:25.514Z,40.50
2018-03-25T06:26:25.465Z,40.60
2018-03-25T06:27:25.408Z,40.50
2018-03-25T06:28:25.356Z,40.90
2018-03-25T06:29:25.334Z,40.10
2018-03-25T06:30:25.266Z,39.90
2018-03-25T06:31:25.196Z,39.90
2018-03-25T06:32:25.163Z,39.90
2018-03-25T06:33:25.097Z,40.00
2018-03-25T06:34:25.045Z,40.40
2018-03-25T06:35:25.045Z,40.20
2018-03-25T06:36:24.946Z,39.90
2018-03-25T06:37:24.902Z,41.30
2018-03-25T06:38:24.841Z,41.00
2018-03-25T06:39:24.796Z,40.20
2018-03-25T06:40:24.759Z,39.80
2018-03-25T06:41:24.684Z,39.90
2018-03-25T06:42:24.630Z,39.80
2018-03-25T06:43:24.580Z,39.20
2018-03-25T06:44:24.539Z,39.10
2018-03-25T06:45:24.500Z,39.20
2018-03-25T06:46:24.426Z,37.90
2018-03-25T06:47:24.373Z,39.00
2018-03-25T06:48:24.331Z,39.10
2018-03-25T06:49:24.272Z,39.60
2018-03-25T06:50:24.298Z,39.20
2018-03-25T06:51:24.167Z,39.20
2018-03-25T06:52:24.121Z,40.20
2018-03-25T06:53:24.069Z,39.60
2018-03-25T06:54:24.024Z,40.90
2018-03-25T06:55:23.989Z,40.40
2018-03-25T06:56:23.918Z,40.90
2018-03-25T06:57:23.864Z,38.20
2018-03-25T06:58:23.808Z,39.70
2018-03-25T06:59:23.759Z,38.50
2018-03-25T07:00:23.735Z,39.60
2018-03-25T07:01:23.667Z,38.50
2018-03-25T07:02:23.612Z,39.90
2018-03-25T07:03:23.559Z,40.70
2018-03-25T07:04:23.509Z,40.60
2018-03-25T07:05:23.489Z,39.70
2018-03-25T07:06:23.407Z,39.10
2018-03-25T07:07:23.357Z,37.90
2018-03-25T07:08:23.308Z,39.30
2018-03-25T07:09:23.259Z,39.90
2018-03-25T07:10:23.229Z,38.20
2018-03-25T07:11:23.149Z,37.90
2018-03-25T07:12:23.102Z,37.20
2018-03-25T07:13:23.057Z,37.40
2018-03-25T07:14:23.047Z,37.10
2018-03-25T07:15:22.975Z,36.50
2018-03-25T07:16:22.902Z,36.30
2018-03-25T07:17:22.854Z,35.30
2018-03-25T07:18:22.807Z,36.00
2018-03-25T07:19:22.751Z,36.00
2018-03-25T07:20:22.735Z,35.00
2018-03-25T07:21:22.652Z,35.70
2018-03-25T07:22:22.603Z,35.50
2018-03-25T07:23:22.550Z,36.40
2018-03-25T07:24:22.504Z,35.30
2018-03-25T07:25:22.474Z,35.30
2018-03-25T07:26:22.401Z,36.00
2018-03-25T07:27:22.352Z,36.20
2018-03-25T07:28:22.301Z,35.30
2018-03-25T07:29:22.254Z,36.10
2018-03-25T07:30:22.227Z,36.10
2018-03-25T07:31:22.189Z,35.60
2018-03-25T07:32:22.100Z,36.40
2018-03-25T07:33:22.053Z,34.50
2018-03-25T07:34:22.007Z,34.90
2018-03-25T07:35:21.977Z,35.10
2018-03-25T07:36:21.903Z,34.20
2018-03-25T07:37:21.854Z,35.80
2018-03-25T07:38:21.820Z,35.20
2018-03-25T07:39:21.758Z,34.20
2018-03-25T07:40:21.726Z,34.50
2018-03-25T07:41:21.660Z,35.70
2018-03-25T07:42:21.612Z,34.40
2018-03-25T07:43:21.561Z,35.00
2018-03-25T07:44:21.511Z,33.60
2018-03-25T07:45:21.530Z,34.60
2018-03-25T07:46:21.406Z,34.70
2018-03-25T07:47:21.360Z,33.20
2018-03-25T07:48:21.350Z,34.30
2018-03-25T07:49:21.262Z,34.30
2018-03-25T07:50:21.243Z,34.90
2018-03-25T07:51:21.166Z,33.70
2018-03-25T07:52:21.115Z,33.30
2018-03-25T07:53:21.069Z,33.80
2018-03-25T07:54:21.020Z,32.90
2018-03-25T07:55:20.993Z,33.30
2018-03-25T07:56:20.919Z,34.00
2018-03-25T07:57:20.873Z,34.60
2018-03-25T07:58:20.825Z,33.20
2018-03-25T07:59:20.772Z,33.60
2018-03-25T08:00:20.749Z,34.70
2018-03-25T08:01:20.678Z,34.50
2018-03-25T08:02:20.631Z,34.10
2018-03-25T08:03:20.577Z,34.00
2018-03-25T08:04:20.531Z,34.10
2018-03-25T08:05:20.506Z,34.00
2018-03-25T08:06:20.433Z,32.80
2018-03-25T08:07:20.383Z,33.20
2018-03-25T08:08:20.334Z,33.00
2018-03-25T08:09:20.286Z,34.50
2018-03-25T08:10:20.262Z,33.90
2018-03-25T08:11:20.187Z,34.80
2018-03-25T08:12:20.141Z,33.40
2018-03-25T08:13:20.092Z,34.90
2018-03-25T08:14:20.046Z,34.20
2018-03-25T08:15:20.018Z,34.30
2018-03-25T08:16:19.948Z,34.00
2018-03-25T08:17:19.900Z,33.60
2018-03-25T08:18:19.848Z,33.90
2018-03-25T08:19:19.801Z,34.70
2018-03-25T08:20:19.775Z,33.00
2018-03-25T08:21:19.704Z,33.40
2018-03-25T08:22:27.298Z,33.50
2018-03-25T08:23:19.609Z,33.50
2018-03-25T08:24:19.563Z,33.60
2018-03-25T08:25:19.534Z,33.00
2018-03-25T08:26:19.468Z,33.30
2018-03-25T08:27:19.416Z,33.30
2018-03-25T08:28:19.375Z,34.00
2018-03-25T08:29:19.328Z,33.10
2018-03-25T08:30:19.311Z,34.10
2018-03-25T08:31:19.223Z,32.80
2018-03-25T08:32:19.171Z,33.10
2018-03-25T08:33:19.124Z,33.60
2018-03-25T08:34:19.078Z,33.50
2018-03-25T08:35:19.028Z,32.70
2018-03-25T08:36:19.005Z,32.80
2018-03-25T08:37:18.932Z,32.70
2018-03-25T08:38:18.890Z,32.80
2018-03-25T08:39:18.833Z,33.00
2018-03-25T08:40:18.839Z,32.60
2018-03-25T08:41:18.762Z,32.90
2018-03-25T08:42:18.694Z,32.50
2018-03-25T08:43:18.647Z,33.20
2018-03-25T08:44:18.597Z,32.50
2018-03-25T08:45:18.548Z,33.40
2018-03-25T08:46:18.525Z,33.60
2018-03-25T08:47:18.454Z,32.70
2018-03-25T08:48:18.409Z,32.50
2018-03-25T08:49:18.360Z,32.60
2018-03-25T08:50:18.311Z,31.90
2018-03-25T08:51:18.288Z,32.20
2018-03-25T08:52:18.217Z,32.30
2018-03-25T08:53:18.173Z,31.70
2018-03-25T08:54:18.124Z,32.20
2018-03-25T08:55:18.077Z,32.00
2018-03-25T08:56:18.056Z,31.10
2018-03-25T08:57:17.984Z,31.40
2018-03-25T08:58:17.944Z,32.20
2018-03-25T08:59:17.889Z,32.70
2018-03-25T09:00:17.844Z,31.60
2018-03-25T09:01:17.820Z,31.60
2018-03-25T09:02:17.749Z,32.50
2018-03-25T09:03:17.704Z,32.10
2018-03-25T09:04:17.652Z,32.60
2018-03-25T09:05:17.608Z,31.70
2018-03-25T09:06:17.585Z,31.60
2018-03-25T09:07:17.517Z,31.90
2018-03-25T09:08:17.471Z,31.30
2018-03-25T09:09:17.418Z,31.50
2018-03-25T09:10:17.374Z,31.40
2018-03-25T09:11:17.353Z,32.40
2018-03-25T09:12:17.284Z,31.90
2018-03-25T09:13:17.236Z,32.20
2018-03-25T09:14:17.278Z,32.10
2018-03-25T09:15:17.141Z,32.30
2018-03-25T09:16:17.121Z,32.20
2018-03-25T09:17:17.049Z,32.00
2018-03-25T09:18:17.004Z,32.80
2018-03-25T09:19:16.960Z,32.30
2018-03-25T09:20:16.921Z,31.10
2018-03-25T09:21:16.892Z,31.50
2018-03-25T09:22:16.819Z,30.70
2018-03-25T09:23:16.773Z,32.00
2018-03-25T09:24:16.729Z,31.00
2018-03-25T09:25:16.678Z,30.70
2018-03-25T09:26:16.659Z,31.70
2018-03-25T09:27:16.589Z,31.20
2018-03-25T09:28:16.548Z,31.70
2018-03-25T09:29:16.499Z,31.90
2018-03-25T09:30:16.454Z,30.80
2018-03-25T09:31:16.425Z,31.00
2018-03-25T09:32:16.361Z,29.50
2018-03-25T09:33:16.311Z,30.20
2018-03-25T09:34:16.267Z,31.20
2018-03-25T09:35:16.218Z,30.90
2018-03-25T09:36:16.196Z,29.00
2018-03-25T09:37:16.176Z,29.50
2018-03-25T09:38:16.083Z,30.50
2018-03-25T09:39:16.034Z,30.80
2018-03-25T09:40:15.989Z,29.60
2018-03-25T09:41:15.969Z,31.10
2018-03-25T09:42:15.900Z,30.40
2018-03-25T09:43:15.853Z,29.10
2018-03-25T09:44:15.811Z,30.90
2018-03-25T09:45:15.764Z,28.90
2018-03-25T09:46:15.737Z,29.80
2018-03-25T09:47:15.672Z,30.30
2018-03-25T09:48:15.625Z,28.80
2018-03-25T09:49:15.584Z,29.00
2018-03-25T09:50:15.535Z,28.40
2018-03-25T09:51:15.518Z,30.20
2018-03-25T09:52:15.444Z,29.10
2018-03-25T09:53:15.397Z,30.00
2018-03-25T09:54:15.353Z,28.90
2018-03-25T09:55:15.310Z,29.20
2018-03-25T09:56:15.295Z,28.70
2018-03-25T09:57:15.219Z,29.00
2018-03-25T09:58:15.173Z,28.80
2018-03-25T09:59:15.124Z,28.00
2018-03-25T10:00:15.080Z,29.10
2018-03-25T10:01:15.060Z,28.80
2018-03-25T10:02:14.994Z,29.10
2018-03-25T10:03:14.950Z,29.60
2018-03-25T10:04:14.905Z,29.80
2018-03-25T10:05:14.853Z,29.70
2018-03-25T10:06:14.841Z,29.90
2018-03-25T10:07:14.764Z,29.50
2018-03-25T10:08:14.719Z,30.20
2018-03-25T10:09:14.677Z,28.60
2018-03-25T10:10:14.630Z,28.90
2018-03-25T10:11:14.586Z,28.20
2018-03-25T10:12:14.566Z,29.80
2018-03-25T10:13:14.494Z,29.10
2018-03-25T10:14:14.450Z,28.50
2018-03-25T10:15:14.402Z,29.70
2018-03-25T10:16:14.360Z,29.70
2018-03-25T10:17:14.338Z,29.40
2018-03-25T10:18:14.268Z,29.00
2018-03-25T10:19:14.226Z,29.00
2018-03-25T10:20:14.178Z,29.40
2018-03-25T10:21:14.134Z,29.30
2018-03-25T10:22:14.113Z,29.70
2018-03-25T10:23:14.123Z,29.10
2018-03-25T10:24:14.005Z,30.20
2018-03-25T10:25:13.951Z,29.70
2018-03-25T10:26:13.926Z,30.00
2018-03-25T10:27:13.886Z,30.10
2018-03-25T10:28:13.819Z,29.70
2018-03-25T10:29:13.774Z,29.90
2018-03-25T10:30:13.728Z,29.20
2018-03-25T10:31:13.685Z,29.30
2018-03-25T10:32:13.667Z,29.50
2018-03-25T10:33:13.600Z,29.70
2018-03-25T10:34:13.545Z,29.30
2018-03-25T10:35:13.503Z,29.70
2018-03-25T10:36:13.461Z,29.90
2018-03-25T10:37:13.439Z,29.30
2018-03-25T10:38:13.365Z,29.60
2018-03-25T10:39:13.323Z,29.80
2018-03-25T10:40:13.277Z,30.10
2018-03-25T10:41:13.238Z,29.00
2018-03-25T10:42:13.211Z,29.70
2018-03-25T10:43:13.140Z,29.10
2018-03-25T10:44:13.099Z,29.50
2018-03-25T10:45:13.052Z,29.50
2018-03-25T10:46:13.007Z,29.10
2018-03-25T10:47:12.983Z,30.60
2018-03-25T10:48:12.915Z,28.90
2018-03-25T10:49:12.869Z,29.90
2018-03-25T10:50:12.858Z,28.70
2018-03-25T10:51:12.782Z,29.50
2018-03-25T10:52:12.762Z,29.00
2018-03-25T10:53:12.702Z,29.60
2018-03-25T10:54:20.364Z,29.40
2018-03-25T10:55:12.603Z,28.60
2018-03-25T10:56:12.554Z,29.20
2018-03-25T10:57:12.532Z,28.30
2018-03-25T10:58:12.472Z,29.60
2018-03-25T10:59:12.418Z,29.30
2018-03-25T11:00:12.375Z,29.30
2018-03-25T11:01:12.329Z,29.40
2018-03-25T11:02:12.309Z,29.20
2018-03-25T11:03:12.238Z,29.70
2018-03-25T11:04:12.196Z,28.50
2018-03-25T11:05:12.150Z,28.30
2018-03-25T11:06:12.107Z,28.20
2018-03-25T11:07:12.082Z,28.50
2018-03-25T11:08:12.039Z,28.60
2018-03-25T11:09:11.971Z,27.90
2018-03-25T11:10:11.927Z,28.20
2018-03-25T11:11:11.878Z,27.90
2018-03-25T11:12:11.834Z,28.10
2018-03-25T11:13:11.816Z,28.90
2018-03-25T11:14:11.747Z,27.90
2018-03-25T11:15:11.703Z,27.90
2018-03-25T11:16:11.728Z,26.50
2018-03-25T11:17:11.658Z,28.30
2018-03-25T11:18:11.593Z,28.00
2018-03-25T11:19:11.524Z,27.40
2018-03-25T11:20:11.480Z,27.80
2018-03-25T11:21:11.432Z,27.50
2018-03-25T11:22:11.387Z,28.30
2018-03-25T11:23:11.368Z,27.70
2018-03-25T11:24:11.305Z,27.50
2018-03-25T11:25:11.259Z,27.80
2018-03-25T11:26:11.215Z,26.40
2018-03-25T11:27:11.166Z,26.00
2018-03-25T11:28:11.146Z,26.10
2018-03-25T11:29:11.077Z,26.40
2018-03-25T11:30:11.031Z,26.50
2018-03-25T11:31:10.986Z,26.70
2018-03-25T11:32:10.941Z,27.00
2018-03-25T11:33:10.924Z,26.50
2018-03-25T11:34:10.856Z,26.30
2018-03-25T11:35:10.812Z,27.70
2018-03-25T11:36:10.763Z,27.30
2018-03-25T11:37:10.721Z,27.00
2018-03-25T11:38:10.698Z,27.50
2018-03-25T11:39:10.640Z,26.30
2018-03-25T11:40:10.593Z,26.30
2018-03-25T11:41:10.540Z,26.40
2018-03-25T11:42:10.498Z,26.00
2018-03-25T11:43:10.480Z,23.40
2018-03-25T11:44:10.410Z,21.30
2018-03-25T11:45:10.368Z,23.30
2018-03-25T11:46:10.341Z,20.10
2018-03-25T11:47:10.287Z,20.50
2018-03-25T11:48:10.270Z,19.80
2018-03-25T11:49:10.188Z,19.40
2018-03-25T11:50:10.146Z,20.20
2018-03-25T11:51:10.098Z,21.30
2018-03-25T11:52:10.051Z,21.40
2018-03-25T11:53:10.034Z,22.30
2018-03-25T11:54:17.918Z,20.40
2018-03-25T11:55:09.923Z,20.40
2018-03-25T11:56:09.873Z,18.20
2018-03-25T11:57:09.829Z,20.20
2018-03-25T11:58:09.816Z,21.40
2018-03-25T11:59:09.744Z,22.40
2018-03-25T12:00:09.696Z,21.40
2018-03-25T12:01:09.662Z,21.40
2018-03-25T12:02:09.639Z,19.40
2018-03-25T12:03:09.592Z,17.80
2018-03-25T12:04:09.518Z,16.70
2018-03-25T12:05:09.472Z,17.00
2018-03-25T12:06:09.428Z,16.20
2018-03-25T12:07:09.382Z,17.60
2018-03-25T12:08:09.363Z,16.90
2018-03-25T12:09:09.297Z,15.50
2018-03-25T12:10:09.251Z,17.00
2018-03-25T12:11:09.202Z,17.10
2018-03-25T12:12:09.157Z,17.40
2018-03-25T12:13:09.138Z,17.10
2018-03-25T12:14:09.069Z,17.70
2018-03-25T12:15:09.025Z,19.00
2018-03-25T12:16:09.027Z,18.70
2018-03-25T12:17:08.934Z,18.70
2018-03-25T12:18:08.917Z,18.80
2018-03-25T12:19:08.847Z,18.70
2018-03-25T12:20:08.802Z,19.00
2018-03-25T12:21:08.755Z,19.10
2018-03-25T12:22:08.720Z,19.70
2018-03-25T12:23:08.690Z,20.40
2018-03-25T12:24:08.622Z,21.10
2018-03-25T12:25:08.582Z,20.80
2018-03-25T12:26:08.531Z,21.10
2018-03-25T12:27:08.492Z,20.50
2018-03-25T12:28:08.469Z,20.30
2018-03-25T12:29:08.397Z,19.80
2018-03-25T12:30:08.352Z,20.50
2018-03-25T12:31:08.309Z,20.90
2018-03-25T12:32:08.264Z,20.80
2018-03-25T12:33:08.305Z,20.10
2018-03-25T12:34:08.175Z,20.90
2018-03-25T12:35:08.131Z,19.90
2018-03-25T12:36:08.085Z,19.10
2018-03-25T12:37:08.040Z,19.40
2018-03-25T12:38:08.022Z,19.60
2018-03-25T12:39:07.953Z,19.10
2018-03-25T12:40:07.907Z,19.30
2018-03-25T12:41:07.863Z,19.00
2018-03-25T12:42:07.820Z,18.80
2018-03-25T12:43:07.800Z,18.80
2018-03-25T12:44:07.729Z,19.40
2018-03-25T12:45:07.684Z,18.50
2018-03-25T12:46:07.665Z,18.60
2018-03-25T12:47:07.595Z,18.90
2018-03-25T12:48:07.581Z,19.70
2018-03-25T12:49:07.504Z,19.10
2018-03-25T12:50:07.460Z,19.20
2018-03-25T12:51:07.413Z,20.40
2018-03-25T12:52:07.369Z,21.00